sensor_id;sensor_type;location;lat;lon;timestamp;P1;durP1;ratioP1;P2;durP2;ratioP2
14348;SDS011;7258;50.376;8.742;2023-02-01T00:00:09;6.67;;;4.80;;
14348;SDS011;7258;50.376;8.742;2023-02-01T00:02:25;5.87;;;4.67;;
14348;SDS011;7258;50.376;8.742;2023-02-01T00:04:38;7.33;;;4.23;;
14348;SDS011;7258;50.376;8.742;2023-02-01T00:07:04;7.47;;;4.70;;
14348;SDS011;7258;50.376;8.742;2023-02-01T00:09:18;7.40;;;4.93;;
14348;SDS011;7258;50.376;8.742;2023-02-01T00:11:55;7.33;;;4.70;;
14348;SDS011;7258;50.376;8.742;2023-02-01T00:16:49;4.90;;;4.20;;
14348;SDS011;7258;50.376;8.742;2023-02-01T00:19:24;8.70;;;4.53;;
14348;SDS011;7258;50.376;8.742;2023-02-01T00:21:40;6.20;;;5.13;;
14348;SDS011;7258;50.376;8.742;2023-02-01T00:24:08;7.63;;;5.23;;
14348;SDS011;7258;50.376;8.742;2023-02-01T00:29:24;6.80;;;5.70;;
14348;SDS011;7258;50.376;8.742;2023-02-01T00:31:59;7.37;;;6.13;;
14348;SDS011;7258;50.376;8.742;2023-02-01T00:34:35;7.27;;;6.57;;
14348;SDS011;7258;50.376;8.742;2023-02-01T00:36:45;9.63;;;7.20;;
14348;SDS011;7258;50.376;8.742;2023-02-01T00:39:10;8.20;;;6.73;;
14348;SDS011;7258;50.376;8.742;2023-02-01T00:41:36;7.50;;;6.80;;
14348;SDS011;7258;50.376;8.742;2023-02-01T00:43:57;7.93;;;7.13;;
14348;SDS011;7258;50.376;8.742;2023-02-01T00:46:38;8.47;;;7.00;;
14348;SDS011;7258;50.376;8.742;2023-02-01T00:49:05;8.33;;;7.50;;
14348;SDS011;7258;50.376;8.742;2023-02-01T00:51:47;10.70;;;7.60;;
14348;SDS011;7258;50.376;8.742;2023-02-01T00:54:05;7.20;;;6.47;;
14348;SDS011;7258;50.376;8.742;2023-02-01T00:56:31;8.30;;;7.40;;
14348;SDS011;7258;50.376;8.742;2023-02-01T00:58:37;9.60;;;7.53;;
14348;SDS011;7258;50.376;8.742;2023-02-01T01:01:06;7.40;;;6.70;;
14348;SDS011;7258;50.376;8.742;2023-02-01T01:03:17;9.27;;;7.63;;
14348;SDS011;7258;50.376;8.742;2023-02-01T01:05:29;8.30;;;7.40;;
14348;SDS011;7258;50.376;8.742;2023-02-01T01:10:22;9.90;;;7.07;;
14348;SDS011;7258;50.376;8.742;2023-02-01T01:12:32;8.50;;;6.97;;
14348;SDS011;7258;50.376;8.742;2023-02-01T01:14:54;9.87;;;7.27;;
14348;SDS011;7258;50.376;8.742;2023-02-01T01:17:16;7.87;;;6.83;;
14348;SDS011;7258;50.376;8.742;2023-02-01T01:19:28;8.63;;;7.37;;
14348;SDS011;7258;50.376;8.742;2023-02-01T01:21:50;12.17;;;7.83;;
14348;SDS011;7258;50.376;8.742;2023-02-01T01:24:05;9.07;;;7.60;;
14348;SDS011;7258;50.376;8.742;2023-02-01T01:26:15;10.30;;;8.13;;
14348;SDS011;7258;50.376;8.742;2023-02-01T01:28:31;8.67;;;7.33;;
14348;SDS011;7258;50.376;8.742;2023-02-01T01:30:40;8.50;;;7.70;;
14348;SDS011;7258;50.376;8.742;2023-02-01T01:32:51;10.60;;;8.50;;
14348;SDS011;7258;50.376;8.742;2023-02-01T01:34:58;9.30;;;7.37;;
14348;SDS011;7258;50.376;8.742;2023-02-01T01:37:10;9.83;;;8.83;;
14348;SDS011;7258;50.376;8.742;2023-02-01T01:39:16;9.43;;;8.53;;
14348;SDS011;7258;50.376;8.742;2023-02-01T01:41:20;10.67;;;8.60;;
14348;SDS011;7258;50.376;8.742;2023-02-01T01:43:52;9.50;;;8.50;;
14348;SDS011;7258;50.376;8.742;2023-02-01T01:46:05;11.33;;;9.20;;
14348;SDS011;7258;50.376;8.742;2023-02-01T01:48:20;10.60;;;8.90;;
14348;SDS011;7258;50.376;8.742;2023-02-01T01:50:29;11.00;;;8.97;;
14348;SDS011;7258;50.376;8.742;2023-02-01T01:52:42;11.10;;;9.90;;
14348;SDS011;7258;50.376;8.742;2023-02-01T01:54:49;10.97;;;9.97;;
14348;SDS011;7258;50.376;8.742;2023-02-01T01:56:57;10.97;;;9.47;;
14348;SDS011;7258;50.376;8.742;2023-02-01T01:59:07;10.80;;;9.70;;
14348;SDS011;7258;50.376;8.742;2023-02-01T02:01:11;10.17;;;9.17;;
14348;SDS011;7258;50.376;8.742;2023-02-01T02:03:17;11.70;;;10.50;;
14348;SDS011;7258;50.376;8.742;2023-02-01T02:05:24;13.27;;;10.60;;
14348;SDS011;7258;50.376;8.742;2023-02-01T02:07:32;10.53;;;9.53;;
14348;SDS011;7258;50.376;8.742;2023-02-01T02:09:39;11.17;;;10.10;;
14348;SDS011;7258;50.376;8.742;2023-02-01T02:12:01;11.43;;;10.27;;
14348;SDS011;7258;50.376;8.742;2023-02-01T02:14:05;11.03;;;10.03;;
14348;SDS011;7258;50.376;8.742;2023-02-01T02:16:14;10.67;;;9.57;;
14348;SDS011;7258;50.376;8.742;2023-02-01T02:18:41;10.57;;;9.53;;
14348;SDS011;7258;50.376;8.742;2023-02-01T02:20:56;12.30;;;10.30;;
14348;SDS011;7258;50.376;8.742;2023-02-01T02:23:34;10.40;;;9.40;;
14348;SDS011;7258;50.376;8.742;2023-02-01T02:26:24;10.47;;;9.47;;
14348;SDS011;7258;50.376;8.742;2023-02-01T02:31:25;10.50;;;9.40;;
14348;SDS011;7258;50.376;8.742;2023-02-01T02:33:49;9.97;;;8.97;;
14348;SDS011;7258;50.376;8.742;2023-02-01T02:35:57;10.33;;;9.23;;
14348;SDS011;7258;50.376;8.742;2023-02-01T02:38:06;10.17;;;9.17;;
14348;SDS011;7258;50.376;8.742;2023-02-01T02:40:16;10.60;;;9.50;;
14348;SDS011;7258;50.376;8.742;2023-02-01T02:42:27;10.50;;;9.50;;
14348;SDS011;7258;50.376;8.742;2023-02-01T02:44:53;9.53;;;8.63;;
14348;SDS011;7258;50.376;8.742;2023-02-01T02:47:24;10.20;;;8.80;;
14348;SDS011;7258;50.376;8.742;2023-02-01T02:49:34;9.23;;;8.27;;
14348;SDS011;7258;50.376;8.742;2023-02-01T02:51:43;9.67;;;8.73;;
14348;SDS011;7258;50.376;8.742;2023-02-01T02:54:11;9.57;;;8.17;;
14348;SDS011;7258;50.376;8.742;2023-02-01T02:56:35;9.23;;;8.07;;
14348;SDS011;7258;50.376;8.742;2023-02-01T02:58:58;10.93;;;8.70;;
14348;SDS011;7258;50.376;8.742;2023-02-01T03:01:19;9.83;;;8.10;;
14348;SDS011;7258;50.376;8.742;2023-02-01T03:03:42;9.03;;;7.83;;
14348;SDS011;7258;50.376;8.742;2023-02-01T03:06:08;9.97;;;7.53;;
14348;SDS011;7258;50.376;8.742;2023-02-01T03:08:16;10.10;;;7.77;;
14348;SDS011;7258;50.376;8.742;2023-02-01T03:10:23;9.13;;;7.03;;
14348;SDS011;7258;50.376;8.742;2023-02-01T03:12:31;12.90;;;6.10;;
14348;SDS011;7258;50.376;8.742;2023-02-01T03:14:57;8.73;;;5.80;;
14348;SDS011;7258;50.376;8.742;2023-02-01T03:17:04;12.50;;;6.27;;
14348;SDS011;7258;50.376;8.742;2023-02-01T03:19:17;10.13;;;5.83;;
14348;SDS011;7258;50.376;8.742;2023-02-01T03:21:26;12.23;;;6.10;;
14348;SDS011;7258;50.376;8.742;2023-02-01T03:23:33;8.83;;;4.83;;
14348;SDS011;7258;50.376;8.742;2023-02-01T03:25:39;10.23;;;5.30;;
14348;SDS011;7258;50.376;8.742;2023-02-01T03:27:46;7.47;;;4.60;;
14348;SDS011;7258;50.376;8.742;2023-02-01T03:29:55;9.47;;;4.30;;
14348;SDS011;7258;50.376;8.742;2023-02-01T03:32:02;7.40;;;4.20;;
14348;SDS011;7258;50.376;8.742;2023-02-01T03:34:05;11.47;;;4.63;;
14348;SDS011;7258;50.376;8.742;2023-02-01T03:36:15;10.23;;;4.60;;
14348;SDS011;7258;50.376;8.742;2023-02-01T03:38:30;11.30;;;4.63;;
14348;SDS011;7258;50.376;8.742;2023-02-01T03:40:36;9.53;;;4.00;;
14348;SDS011;7258;50.376;8.742;2023-02-01T03:42:42;7.23;;;3.90;;
14348;SDS011;7258;50.376;8.742;2023-02-01T03:44:49;12.17;;;4.63;;
14348;SDS011;7258;50.376;8.742;2023-02-01T03:46:57;8.83;;;4.03;;
14348;SDS011;7258;50.376;8.742;2023-02-01T03:49:03;8.30;;;3.87;;
14348;SDS011;7258;50.376;8.742;2023-02-01T03:51:09;7.43;;;3.87;;
14348;SDS011;7258;50.376;8.742;2023-02-01T03:53:14;11.03;;;4.20;;
14348;SDS011;7258;50.376;8.742;2023-02-01T03:55:23;8.47;;;4.53;;
14348;SDS011;7258;50.376;8.742;2023-02-01T03:57:29;11.80;;;4.10;;
14348;SDS011;7258;50.376;8.742;2023-02-01T03:59:37;7.93;;;3.60;;
14348;SDS011;7258;50.376;8.742;2023-02-01T04:01:41;11.40;;;4.00;;
14348;SDS011;7258;50.376;8.742;2023-02-01T04:03:44;10.00;;;4.20;;
14348;SDS011;7258;50.376;8.742;2023-02-01T04:05:47;8.90;;;3.53;;
14348;SDS011;7258;50.376;8.742;2023-02-01T04:07:50;8.53;;;3.40;;
14348;SDS011;7258;50.376;8.742;2023-02-01T04:09:55;10.53;;;3.93;;
14348;SDS011;7258;50.376;8.742;2023-02-01T04:12:00;8.17;;;3.83;;
14348;SDS011;7258;50.376;8.742;2023-02-01T04:14:03;10.30;;;3.93;;
14348;SDS011;7258;50.376;8.742;2023-02-01T04:16:06;6.83;;;3.43;;
14348;SDS011;7258;50.376;8.742;2023-02-01T04:18:09;9.17;;;3.73;;
14348;SDS011;7258;50.376;8.742;2023-02-01T04:20:12;7.17;;;3.37;;
14348;SDS011;7258;50.376;8.742;2023-02-01T04:22:15;9.73;;;3.80;;
14348;SDS011;7258;50.376;8.742;2023-02-01T04:24:18;11.17;;;3.90;;
14348;SDS011;7258;50.376;8.742;2023-02-01T04:26:21;9.97;;;3.60;;
14348;SDS011;7258;50.376;8.742;2023-02-01T04:28:26;8.20;;;3.73;;
14348;SDS011;7258;50.376;8.742;2023-02-01T04:30:29;9.30;;;3.93;;
14348;SDS011;7258;50.376;8.742;2023-02-01T04:32:32;11.27;;;4.00;;
14348;SDS011;7258;50.376;8.742;2023-02-01T04:34:35;16.27;;;4.00;;
14348;SDS011;7258;50.376;8.742;2023-02-01T04:36:38;10.73;;;3.90;;
14348;SDS011;7258;50.376;8.742;2023-02-01T04:38:41;10.87;;;3.97;;
14348;SDS011;7258;50.376;8.742;2023-02-01T04:40:46;11.27;;;3.80;;
14348;SDS011;7258;50.376;8.742;2023-02-01T04:42:49;10.17;;;3.67;;
14348;SDS011;7258;50.376;8.742;2023-02-01T04:44:54;8.27;;;3.77;;
14348;SDS011;7258;50.376;8.742;2023-02-01T04:46:57;7.23;;;3.93;;
14348;SDS011;7258;50.376;8.742;2023-02-01T04:49:00;10.03;;;4.03;;
14348;SDS011;7258;50.376;8.742;2023-02-01T04:51:03;9.50;;;3.87;;
14348;SDS011;7258;50.376;8.742;2023-02-01T04:53:06;9.20;;;4.27;;
14348;SDS011;7258;50.376;8.742;2023-02-01T04:55:09;9.17;;;4.23;;
14348;SDS011;7258;50.376;8.742;2023-02-01T04:57:12;17.47;;;4.57;;
14348;SDS011;7258;50.376;8.742;2023-02-01T04:59:16;10.77;;;4.00;;
14348;SDS011;7258;50.376;8.742;2023-02-01T05:01:21;9.07;;;4.83;;
14348;SDS011;7258;50.376;8.742;2023-02-01T05:03:25;9.73;;;4.80;;
14348;SDS011;7258;50.376;8.742;2023-02-01T05:05:29;8.87;;;5.03;;
14348;SDS011;7258;50.376;8.742;2023-02-01T05:07:32;11.67;;;5.70;;
14348;SDS011;7258;50.376;8.742;2023-02-01T05:09:34;11.10;;;5.67;;
14348;SDS011;7258;50.376;8.742;2023-02-01T05:11:38;8.53;;;5.43;;
14348;SDS011;7258;50.376;8.742;2023-02-01T05:13:58;12.67;;;5.20;;
14348;SDS011;7258;50.376;8.742;2023-02-01T05:16:03;12.67;;;7.33;;
14348;SDS011;7258;50.376;8.742;2023-02-01T05:18:08;20.57;;;12.67;;
14348;SDS011;7258;50.376;8.742;2023-02-01T05:20:11;11.90;;;6.00;;
14348;SDS011;7258;50.376;8.742;2023-02-01T05:22:13;12.13;;;6.40;;
14348;SDS011;7258;50.376;8.742;2023-02-01T05:24:16;9.90;;;5.40;;
14348;SDS011;7258;50.376;8.742;2023-02-01T05:26:21;11.70;;;5.17;;
14348;SDS011;7258;50.376;8.742;2023-02-01T05:28:24;11.50;;;4.80;;
14348;SDS011;7258;50.376;8.742;2023-02-01T05:30:27;13.83;;;8.13;;
14348;SDS011;7258;50.376;8.742;2023-02-01T05:32:30;10.10;;;4.93;;
14348;SDS011;7258;50.376;8.742;2023-02-01T05:34:35;11.23;;;4.40;;
14348;SDS011;7258;50.376;8.742;2023-02-01T05:36:38;17.13;;;5.07;;
14348;SDS011;7258;50.376;8.742;2023-02-01T05:38:41;11.27;;;4.00;;
14348;SDS011;7258;50.376;8.742;2023-02-01T05:40:44;15.30;;;4.47;;
14348;SDS011;7258;50.376;8.742;2023-02-01T05:42:50;8.03;;;3.67;;
14348;SDS011;7258;50.376;8.742;2023-02-01T05:44:53;15.27;;;4.23;;
14348;SDS011;7258;50.376;8.742;2023-02-01T05:46:56;13.23;;;4.17;;
14348;SDS011;7258;50.376;8.742;2023-02-01T05:48:59;13.40;;;3.90;;
14348;SDS011;7258;50.376;8.742;2023-02-01T05:51:04;12.00;;;4.27;;
14348;SDS011;7258;50.376;8.742;2023-02-01T05:53:07;16.10;;;4.00;;
14348;SDS011;7258;50.376;8.742;2023-02-01T05:55:10;13.23;;;4.37;;
14348;SDS011;7258;50.376;8.742;2023-02-01T05:57:13;8.60;;;3.73;;
14348;SDS011;7258;50.376;8.742;2023-02-01T05:59:16;8.03;;;3.60;;
14348;SDS011;7258;50.376;8.742;2023-02-01T06:01:19;15.50;;;4.37;;
14348;SDS011;7258;50.376;8.742;2023-02-01T06:03:22;10.10;;;3.63;;
14348;SDS011;7258;50.376;8.742;2023-02-01T06:05:25;15.27;;;4.10;;
14348;SDS011;7258;50.376;8.742;2023-02-01T06:07:30;14.90;;;3.63;;
14348;SDS011;7258;50.376;8.742;2023-02-01T06:09:33;17.63;;;4.10;;
14348;SDS011;7258;50.376;8.742;2023-02-01T06:11:37;12.67;;;3.73;;
14348;SDS011;7258;50.376;8.742;2023-02-01T06:13:40;13.73;;;4.10;;
14348;SDS011;7258;50.376;8.742;2023-02-01T06:15:43;14.77;;;4.67;;
14348;SDS011;7258;50.376;8.742;2023-02-01T06:17:46;12.60;;;4.20;;
14348;SDS011;7258;50.376;8.742;2023-02-01T06:19:49;11.87;;;4.23;;
14348;SDS011;7258;50.376;8.742;2023-02-01T06:21:52;16.67;;;4.67;;
14348;SDS011;7258;50.376;8.742;2023-02-01T06:23:56;15.47;;;4.13;;
14348;SDS011;7258;50.376;8.742;2023-02-01T06:26:00;14.23;;;4.40;;
14348;SDS011;7258;50.376;8.742;2023-02-01T06:28:04;15.90;;;4.53;;
14348;SDS011;7258;50.376;8.742;2023-02-01T06:30:08;11.83;;;3.67;;
14348;SDS011;7258;50.376;8.742;2023-02-01T06:32:12;12.13;;;4.47;;
14348;SDS011;7258;50.376;8.742;2023-02-01T06:34:15;13.50;;;4.13;;
14348;SDS011;7258;50.376;8.742;2023-02-01T06:36:20;15.87;;;4.33;;
14348;SDS011;7258;50.376;8.742;2023-02-01T06:38:23;15.33;;;4.37;;
14348;SDS011;7258;50.376;8.742;2023-02-01T06:40:28;9.53;;;3.70;;
14348;SDS011;7258;50.376;8.742;2023-02-01T06:42:31;15.67;;;4.33;;
14348;SDS011;7258;50.376;8.742;2023-02-01T06:44:34;11.10;;;4.07;;
14348;SDS011;7258;50.376;8.742;2023-02-01T06:46:37;11.47;;;4.00;;
14348;SDS011;7258;50.376;8.742;2023-02-01T06:48:42;12.27;;;4.00;;
14348;SDS011;7258;50.376;8.742;2023-02-01T06:50:47;15.30;;;3.80;;
14348;SDS011;7258;50.376;8.742;2023-02-01T06:52:54;10.50;;;4.00;;
14348;SDS011;7258;50.376;8.742;2023-02-01T06:54:57;12.40;;;4.07;;
14348;SDS011;7258;50.376;8.742;2023-02-01T06:57:02;9.60;;;3.47;;
14348;SDS011;7258;50.376;8.742;2023-02-01T06:59:06;11.73;;;4.03;;
14348;SDS011;7258;50.376;8.742;2023-02-01T07:01:10;10.67;;;4.23;;
14348;SDS011;7258;50.376;8.742;2023-02-01T07:03:15;11.20;;;4.60;;
14348;SDS011;7258;50.376;8.742;2023-02-01T07:05:18;12.00;;;4.23;;
14348;SDS011;7258;50.376;8.742;2023-02-01T07:07:21;12.07;;;3.93;;
14348;SDS011;7258;50.376;8.742;2023-02-01T07:09:25;16.70;;;4.30;;
14348;SDS011;7258;50.376;8.742;2023-02-01T07:11:31;14.73;;;4.10;;
14348;SDS011;7258;50.376;8.742;2023-02-01T07:13:40;11.27;;;3.97;;
14348;SDS011;7258;50.376;8.742;2023-02-01T07:15:43;13.67;;;4.17;;
14348;SDS011;7258;50.376;8.742;2023-02-01T07:17:47;14.33;;;4.50;;
14348;SDS011;7258;50.376;8.742;2023-02-01T07:19:50;13.63;;;4.17;;
14348;SDS011;7258;50.376;8.742;2023-02-01T07:21:53;10.77;;;3.77;;
14348;SDS011;7258;50.376;8.742;2023-02-01T07:23:57;10.10;;;4.00;;
14348;SDS011;7258;50.376;8.742;2023-02-01T07:26:01;11.77;;;4.07;;
14348;SDS011;7258;50.376;8.742;2023-02-01T07:28:06;12.37;;;4.47;;
14348;SDS011;7258;50.376;8.742;2023-02-01T07:30:12;11.63;;;3.80;;
14348;SDS011;7258;50.376;8.742;2023-02-01T07:32:15;9.90;;;4.07;;
14348;SDS011;7258;50.376;8.742;2023-02-01T07:34:19;11.30;;;3.63;;
14348;SDS011;7258;50.376;8.742;2023-02-01T07:36:23;14.73;;;4.30;;
14348;SDS011;7258;50.376;8.742;2023-02-01T07:38:26;12.93;;;3.63;;
14348;SDS011;7258;50.376;8.742;2023-02-01T07:40:30;12.33;;;4.07;;
14348;SDS011;7258;50.376;8.742;2023-02-01T07:42:33;11.43;;;4.07;;
14348;SDS011;7258;50.376;8.742;2023-02-01T07:44:36;14.60;;;3.97;;
14348;SDS011;7258;50.376;8.742;2023-02-01T07:46:41;14.10;;;4.07;;
14348;SDS011;7258;50.376;8.742;2023-02-01T07:48:44;12.60;;;3.70;;
14348;SDS011;7258;50.376;8.742;2023-02-01T07:50:47;11.57;;;3.73;;
14348;SDS011;7258;50.376;8.742;2023-02-01T07:52:50;13.50;;;3.73;;
14348;SDS011;7258;50.376;8.742;2023-02-01T07:54:56;13.57;;;3.83;;
14348;SDS011;7258;50.376;8.742;2023-02-01T07:57:03;10.90;;;3.70;;
14348;SDS011;7258;50.376;8.742;2023-02-01T07:59:07;10.00;;;3.50;;
14348;SDS011;7258;50.376;8.742;2023-02-01T08:01:13;15.00;;;4.03;;
14348;SDS011;7258;50.376;8.742;2023-02-01T08:03:23;11.63;;;3.63;;
14348;SDS011;7258;50.376;8.742;2023-02-01T08:05:26;12.70;;;4.17;;
14348;SDS011;7258;50.376;8.742;2023-02-01T08:07:30;10.13;;;3.47;;
14348;SDS011;7258;50.376;8.742;2023-02-01T08:09:33;16.47;;;4.27;;
14348;SDS011;7258;50.376;8.742;2023-02-01T08:11:36;14.20;;;3.40;;
14348;SDS011;7258;50.376;8.742;2023-02-01T08:13:42;12.20;;;4.00;;
14348;SDS011;7258;50.376;8.742;2023-02-01T08:15:46;10.73;;;3.57;;
14348;SDS011;7258;50.376;8.742;2023-02-01T08:17:51;12.23;;;3.97;;
14348;SDS011;7258;50.376;8.742;2023-02-01T08:19:56;9.17;;;3.37;;
14348;SDS011;7258;50.376;8.742;2023-02-01T08:21:59;13.53;;;3.70;;
14348;SDS011;7258;50.376;8.742;2023-02-01T08:24:08;9.60;;;3.57;;
14348;SDS011;7258;50.376;8.742;2023-02-01T08:26:13;13.70;;;4.03;;
14348;SDS011;7258;50.376;8.742;2023-02-01T08:28:19;14.47;;;3.70;;
14348;SDS011;7258;50.376;8.742;2023-02-01T08:30:23;10.73;;;3.63;;
14348;SDS011;7258;50.376;8.742;2023-02-01T08:32:28;11.27;;;3.47;;
14348;SDS011;7258;50.376;8.742;2023-02-01T08:34:31;9.63;;;3.80;;
14348;SDS011;7258;50.376;8.742;2023-02-01T08:36:37;10.43;;;3.53;;
14348;SDS011;7258;50.376;8.742;2023-02-01T08:38:42;13.63;;;4.00;;
14348;SDS011;7258;50.376;8.742;2023-02-01T08:40:45;15.13;;;3.70;;
14348;SDS011;7258;50.376;8.742;2023-02-01T08:42:48;13.50;;;3.63;;
14348;SDS011;7258;50.376;8.742;2023-02-01T08:44:54;11.07;;;3.73;;
14348;SDS011;7258;50.376;8.742;2023-02-01T08:46:57;11.03;;;3.13;;
14348;SDS011;7258;50.376;8.742;2023-02-01T08:49:00;13.87;;;4.37;;
14348;SDS011;7258;50.376;8.742;2023-02-01T08:51:03;16.27;;;3.93;;
14348;SDS011;7258;50.376;8.742;2023-02-01T08:53:13;10.83;;;3.73;;
14348;SDS011;7258;50.376;8.742;2023-02-01T08:55:16;11.63;;;3.50;;
14348;SDS011;7258;50.376;8.742;2023-02-01T08:57:20;12.43;;;4.03;;
14348;SDS011;7258;50.376;8.742;2023-02-01T08:59:23;10.37;;;3.93;;
14348;SDS011;7258;50.376;8.742;2023-02-01T09:01:29;10.27;;;3.73;;
14348;SDS011;7258;50.376;8.742;2023-02-01T09:03:33;14.10;;;4.07;;
14348;SDS011;7258;50.376;8.742;2023-02-01T09:05:36;11.53;;;4.23;;
14348;SDS011;7258;50.376;8.742;2023-02-01T09:07:50;13.60;;;3.97;;
14348;SDS011;7258;50.376;8.742;2023-02-01T09:09:54;13.50;;;3.70;;
14348;SDS011;7258;50.376;8.742;2023-02-01T09:12:02;10.93;;;4.00;;
14348;SDS011;7258;50.376;8.742;2023-02-01T09:14:06;9.93;;;3.20;;
14348;SDS011;7258;50.376;8.742;2023-02-01T09:16:11;12.00;;;4.17;;
14348;SDS011;7258;50.376;8.742;2023-02-01T09:18:15;13.83;;;4.07;;
14348;SDS011;7258;50.376;8.742;2023-02-01T09:20:18;14.20;;;4.03;;
14348;SDS011;7258;50.376;8.742;2023-02-01T09:22:26;10.13;;;3.90;;
14348;SDS011;7258;50.376;8.742;2023-02-01T09:24:29;13.67;;;3.33;;
14348;SDS011;7258;50.376;8.742;2023-02-01T09:26:33;13.53;;;4.10;;
14348;SDS011;7258;50.376;8.742;2023-02-01T09:28:38;14.17;;;4.20;;
14348;SDS011;7258;50.376;8.742;2023-02-01T09:30:41;13.80;;;3.90;;
14348;SDS011;7258;50.376;8.742;2023-02-01T09:32:47;13.77;;;4.00;;
14348;SDS011;7258;50.376;8.742;2023-02-01T09:34:50;9.67;;;3.57;;
14348;SDS011;7258;50.376;8.742;2023-02-01T09:36:56;17.70;;;4.03;;
14348;SDS011;7258;50.376;8.742;2023-02-01T09:39:00;13.77;;;4.27;;
14348;SDS011;7258;50.376;8.742;2023-02-01T09:41:07;13.87;;;4.80;;
14348;SDS011;7258;50.376;8.742;2023-02-01T09:43:24;15.03;;;3.80;;
14348;SDS011;7258;50.376;8.742;2023-02-01T09:45:35;10.57;;;4.00;;
14348;SDS011;7258;50.376;8.742;2023-02-01T09:47:46;13.03;;;3.60;;
14348;SDS011;7258;50.376;8.742;2023-02-01T09:49:55;8.57;;;3.27;;
14348;SDS011;7258;50.376;8.742;2023-02-01T09:52:04;12.17;;;3.83;;
14348;SDS011;7258;50.376;8.742;2023-02-01T09:54:11;10.77;;;4.17;;
14348;SDS011;7258;50.376;8.742;2023-02-01T09:56:20;15.10;;;4.23;;
14348;SDS011;7258;50.376;8.742;2023-02-01T09:58:29;14.57;;;4.03;;
14348;SDS011;7258;50.376;8.742;2023-02-01T10:00:36;15.40;;;3.90;;
14348;SDS011;7258;50.376;8.742;2023-02-01T10:02:41;10.03;;;3.77;;
14348;SDS011;7258;50.376;8.742;2023-02-01T10:04:48;12.47;;;3.47;;
14348;SDS011;7258;50.376;8.742;2023-02-01T10:06:56;16.53;;;4.03;;
14348;SDS011;7258;50.376;8.742;2023-02-01T10:14:56;11.43;;;3.50;;
14348;SDS011;7258;50.376;8.742;2023-02-01T10:17:13;15.10;;;4.00;;
14348;SDS011;7258;50.376;8.742;2023-02-01T10:19:28;11.07;;;4.00;;
14348;SDS011;7258;50.376;8.742;2023-02-01T10:21:45;16.37;;;4.00;;
14348;SDS011;7258;50.376;8.742;2023-02-01T10:24:08;9.57;;;3.47;;
14348;SDS011;7258;50.376;8.742;2023-02-01T10:26:29;14.70;;;4.20;;
14348;SDS011;7258;50.376;8.742;2023-02-01T10:28:36;12.83;;;3.50;;
14348;SDS011;7258;50.376;8.742;2023-02-01T10:30:43;10.20;;;3.53;;
14348;SDS011;7258;50.376;8.742;2023-02-01T10:32:48;10.40;;;3.40;;
14348;SDS011;7258;50.376;8.742;2023-02-01T10:34:58;11.13;;;3.50;;
14348;SDS011;7258;50.376;8.742;2023-02-01T10:37:08;12.37;;;3.57;;
14348;SDS011;7258;50.376;8.742;2023-02-01T10:39:20;10.27;;;3.70;;
14348;SDS011;7258;50.376;8.742;2023-02-01T10:41:27;16.60;;;3.93;;
14348;SDS011;7258;50.376;8.742;2023-02-01T10:43:35;12.00;;;3.90;;
14348;SDS011;7258;50.376;8.742;2023-02-01T10:45:39;10.93;;;3.67;;
14348;SDS011;7258;50.376;8.742;2023-02-01T10:47:45;11.40;;;3.33;;
14348;SDS011;7258;50.376;8.742;2023-02-01T10:49:52;16.00;;;3.83;;
14348;SDS011;7258;50.376;8.742;2023-02-01T10:52:00;12.07;;;3.80;;
14348;SDS011;7258;50.376;8.742;2023-02-01T10:54:10;13.00;;;3.63;;
14348;SDS011;7258;50.376;8.742;2023-02-01T10:56:21;10.40;;;3.20;;
14348;SDS011;7258;50.376;8.742;2023-02-01T10:58:35;9.33;;;3.60;;
14348;SDS011;7258;50.376;8.742;2023-02-01T11:00:46;11.13;;;3.60;;
14348;SDS011;7258;50.376;8.742;2023-02-01T11:02:52;10.03;;;3.73;;
14348;SDS011;7258;50.376;8.742;2023-02-01T11:05:01;9.70;;;3.40;;
14348;SDS011;7258;50.376;8.742;2023-02-01T11:07:06;9.83;;;3.40;;
14348;SDS011;7258;50.376;8.742;2023-02-01T11:09:18;9.30;;;3.23;;
14348;SDS011;7258;50.376;8.742;2023-02-01T11:11:25;8.80;;;3.13;;
14348;SDS011;7258;50.376;8.742;2023-02-01T11:13:31;8.87;;;3.43;;
14348;SDS011;7258;50.376;8.742;2023-02-01T11:15:39;9.57;;;3.53;;
14348;SDS011;7258;50.376;8.742;2023-02-01T11:17:46;13.80;;;3.33;;
14348;SDS011;7258;50.376;8.742;2023-02-01T11:19:57;9.20;;;3.57;;
14348;SDS011;7258;50.376;8.742;2023-02-01T11:22:03;11.53;;;3.70;;
14348;SDS011;7258;50.376;8.742;2023-02-01T11:24:22;8.90;;;2.97;;
14348;SDS011;7258;50.376;8.742;2023-02-01T11:26:27;8.00;;;2.93;;
14348;SDS011;7258;50.376;8.742;2023-02-01T11:28:32;9.60;;;3.47;;
14348;SDS011;7258;50.376;8.742;2023-02-01T11:30:37;10.20;;;3.60;;
14348;SDS011;7258;50.376;8.742;2023-02-01T11:32:44;13.57;;;3.80;;
14348;SDS011;7258;50.376;8.742;2023-02-01T11:34:53;11.13;;;3.40;;
14348;SDS011;7258;50.376;8.742;2023-02-01T11:37:02;10.37;;;3.33;;
14348;SDS011;7258;50.376;8.742;2023-02-01T11:39:07;12.97;;;3.40;;
14348;SDS011;7258;50.376;8.742;2023-02-01T11:41:23;10.60;;;3.10;;
14348;SDS011;7258;50.376;8.742;2023-02-01T11:43:28;10.07;;;3.53;;
14348;SDS011;7258;50.376;8.742;2023-02-01T11:45:32;12.60;;;3.80;;
14348;SDS011;7258;50.376;8.742;2023-02-01T11:47:39;9.87;;;3.40;;
14348;SDS011;7258;50.376;8.742;2023-02-01T11:49:43;10.20;;;3.10;;
14348;SDS011;7258;50.376;8.742;2023-02-01T11:51:51;13.53;;;3.67;;
14348;SDS011;7258;50.376;8.742;2023-02-01T11:54:10;8.93;;;3.00;;
14348;SDS011;7258;50.376;8.742;2023-02-01T11:56:24;11.13;;;3.50;;
14348;SDS011;7258;50.376;8.742;2023-02-01T11:58:35;9.73;;;3.60;;
14348;SDS011;7258;50.376;8.742;2023-02-01T12:01:17;10.20;;;3.60;;
14348;SDS011;7258;50.376;8.742;2023-02-01T12:03:45;8.87;;;3.57;;
14348;SDS011;7258;50.376;8.742;2023-02-01T12:06:05;9.27;;;3.10;;
14348;SDS011;7258;50.376;8.742;2023-02-01T12:08:27;11.13;;;3.80;;
14348;SDS011;7258;50.376;8.742;2023-02-01T12:13:46;9.20;;;3.03;;
14348;SDS011;7258;50.376;8.742;2023-02-01T12:16:01;10.73;;;3.30;;
14348;SDS011;7258;50.376;8.742;2023-02-01T12:20:59;10.20;;;3.53;;
14348;SDS011;7258;50.376;8.742;2023-02-01T12:23:27;9.33;;;2.90;;
14348;SDS011;7258;50.376;8.742;2023-02-01T12:25:57;9.20;;;3.20;;
14348;SDS011;7258;50.376;8.742;2023-02-01T12:28:16;7.80;;;3.23;;
14348;SDS011;7258;50.376;8.742;2023-02-01T12:30:47;9.30;;;3.00;;
14348;SDS011;7258;50.376;8.742;2023-02-01T12:33:04;7.67;;;3.00;;
14348;SDS011;7258;50.376;8.742;2023-02-01T12:35:19;8.07;;;2.77;;
14348;SDS011;7258;50.376;8.742;2023-02-01T12:37:51;9.77;;;2.90;;
14348;SDS011;7258;50.376;8.742;2023-02-01T12:40:08;8.80;;;3.07;;
14348;SDS011;7258;50.376;8.742;2023-02-01T12:42:28;9.83;;;3.23;;
14348;SDS011;7258;50.376;8.742;2023-02-01T12:44:40;10.13;;;2.90;;
14348;SDS011;7258;50.376;8.742;2023-02-01T12:46:49;8.57;;;2.70;;
14348;SDS011;7258;50.376;8.742;2023-02-01T12:48:56;10.10;;;2.50;;
14348;SDS011;7258;50.376;8.742;2023-02-01T12:51:04;10.47;;;3.20;;
14348;SDS011;7258;50.376;8.742;2023-02-01T12:53:14;13.27;;;3.10;;
14348;SDS011;7258;50.376;8.742;2023-02-01T12:55:24;9.83;;;3.50;;
14348;SDS011;7258;50.376;8.742;2023-02-01T12:57:35;11.00;;;3.20;;
14348;SDS011;7258;50.376;8.742;2023-02-01T12:59:44;9.97;;;3.47;;
14348;SDS011;7258;50.376;8.742;2023-02-01T13:01:53;8.80;;;3.03;;
14348;SDS011;7258;50.376;8.742;2023-02-01T13:04:02;7.90;;;2.93;;
14348;SDS011;7258;50.376;8.742;2023-02-01T13:06:15;8.60;;;2.47;;
14348;SDS011;7258;50.376;8.742;2023-02-01T13:08:21;10.87;;;2.77;;
14348;SDS011;7258;50.376;8.742;2023-02-01T13:10:29;7.27;;;3.00;;
14348;SDS011;7258;50.376;8.742;2023-02-01T13:12:38;11.33;;;3.13;;
14348;SDS011;7258;50.376;8.742;2023-02-01T13:14:50;10.00;;;3.33;;
14348;SDS011;7258;50.376;8.742;2023-02-01T13:16:59;11.17;;;3.40;;
14348;SDS011;7258;50.376;8.742;2023-02-01T13:19:09;7.47;;;2.83;;
14348;SDS011;7258;50.376;8.742;2023-02-01T13:21:18;12.43;;;2.93;;
14348;SDS011;7258;50.376;8.742;2023-02-01T13:23:26;9.63;;;3.03;;
14348;SDS011;7258;50.376;8.742;2023-02-01T13:25:33;6.97;;;3.27;;